Time;durP1;ratioP1;P1;durP2;ratioP2;P2;SDS_P1;SDS_P2;PMS_P1;PMS_P2;Temp;Humidity;BMP_temperature;BMP_pressure;BME280_temperature;BME280_humidity;BME280_pressure;Samples;Min_cycle;Max_cycle;Signal;HPM_P1;HPM_P2
2023/10/20 00:01:11;;;;;;;10.63;10.13;;;;;;;;;;5059719;28;20489;-62
2023/10/20 00:03:37;;;;;;;10.55;10.05;;;;;;;;;;5064174;28;20512;-62
2023/10/20 00:06:04;;;;;;;10.98;10.48;;;;;;;;;;5063172;28;20021;-63
2023/10/20 00:08:29;;;;;;;10.90;10.40;;;;;;;;;;5072774;28;20103;-63
2023/10/20 00:11:01;;;;;;;10.52;10.02;;;;;;;;;;5068407;28;20158;-61
2023/10/20 00:13:26;;;;;;;10.70;10.20;;;;;;;;;;5064918;28;20049;-62
2023/10/20 00:15:51;;;;;;;10.35;9.88;;;;;;;;;;5078375;28;20090;-62
2023/10/20 00:18:18;;;;;;;10.70;10.20;;;;;;;;;;5074626;28;20024;-62
2023/10/20 00:20:43;;;;;;;10.38;9.88;;;;;;;;;;5079750;28;20025;-63
2023/10/20 00:23:09;;;;;;;10.60;10.10;;;;;;;;;;5069202;28;20374;-63
2023/10/20 00:25:34;;;;;;;10.35;9.88;;;;;;;;;;5072902;28;20496;-63
2023/10/20 00:27:59;;;;;;;10.32;9.88;;;;;;;;;;5072266;28;20017;-62
2023/10/20 00:30:25;;;;;;;10.65;10.15;;;;;;;;;;5068872;28;20079;-62
2023/10/20 00:32:50;;;;;;;10.57;10.07;;;;;;;;;;5068673;28;20028;-62
2023/10/20 00:35:16;;;;;;;10.45;9.95;;;;;;;;;;5067126;28;20465;-62
2023/10/20 00:37:41;;;;;;;10.27;9.80;;;;;;;;;;5068182;28;20024;-62
2023/10/20 00:40:08;;;;;;;10.68;10.18;;;;;;;;;;5067177;28;20440;-63
2023/10/20 00:42:33;;;;;;;10.98;10.48;;;;;;;;;;5060145;28;20070;-62
2023/10/20 00:44:59;;;;;;;10.48;9.98;;;;;;;;;;5067260;28;20021;-62
2023/10/20 00:47:24;;;;;;;10.43;9.93;;;;;;;;;;5070211;28;20497;-63
2023/10/20 00:49:50;;;;;;;10.80;10.30;;;;;;;;;;5056435;28;20024;-62
2023/10/20 00:52:15;;;;;;;10.82;10.32;;;;;;;;;;5058218;28;20061;-62
2023/10/20 00:54:44;;;;;;;11.00;10.50;;;;;;;;;;5057905;28;20117;-62
2023/10/20 00:57:10;;;;;;;11.20;10.70;;;;;;;;;;5060926;28;20473;-62
2023/10/20 00:59:35;;;;;;;11.07;10.57;;;;;;;;;;5062253;28;20035;-62
2023/10/20 01:02:01;;;;;;;10.77;10.27;;;;;;;;;;5057085;28;20380;-63
2023/10/20 01:04:26;;;;;;;10.85;10.35;;;;;;;;;;5055454;28;20078;-63
2023/10/20 01:06:52;;;;;;;11.00;10.50;;;;;;;;;;5056214;28;20050;-61
2023/10/20 01:09:26;;;;;;;10.82;10.32;;;;;;;;;;5054137;28;20094;-63
2023/10/20 01:11:52;;;;;;;10.45;9.95;;;;;;;;;;5057593;28;20029;-62
2023/10/20 01:14:17;;;;;;;10.90;10.40;;;;;;;;;;5054936;28;20376;-62
2023/10/20 01:16:43;;;;;;;11.10;10.60;;;;;;;;;;5057942;28;20017;-62
2023/10/20 01:19:08;;;;;;;10.80;10.30;;;;;;;;;;5056664;28;20028;-62
2023/10/20 01:21:33;;;;;;;10.80;10.30;;;;;;;;;;5058337;28;20016;-62
2023/10/20 01:24:02;;;;;;;10.90;10.40;;;;;;;;;;5059356;28;20029;-62
2023/10/20 01:26:29;;;;;;;10.65;10.15;;;;;;;;;;5057167;28;20024;-62
2023/10/20 01:28:54;;;;;;;10.45;9.95;;;;;;;;;;5058749;28;20056;-63
2023/10/20 01:31:20;;;;;;;10.40;9.90;;;;;;;;;;5057661;28;20434;-63
2023/10/20 01:33:45;;;;;;;11.23;10.73;;;;;;;;;;5058929;28;20025;-62
2023/10/20 01:36:10;;;;;;;10.88;10.38;;;;;;;;;;5057028;28;20051;-62
2023/10/20 01:38:36;;;;;;;11.13;10.63;;;;;;;;;;5053363;28;20079;-60
2023/10/20 01:41:01;;;;;;;10.15;9.75;;;;;;;;;;5054164;28;20059;-63
2023/10/20 01:43:27;;;;;;;10.50;10.00;;;;;;;;;;5058899;28;20112;-63
2023/10/20 01:45:53;;;;;;;10.68;10.18;;;;;;;;;;5056548;28;20020;-63
2023/10/20 01:48:19;;;;;;;11.18;10.68;;;;;;;;;;5057690;28;20488;-62
2023/10/20 01:50:44;;;;;;;10.88;10.38;;;;;;;;;;5055397;28;20029;-62
2023/10/20 01:53:10;;;;;;;11.13;10.63;;;;;;;;;;5057036;28;20035;-61
2023/10/20 01:55:35;;;;;;;11.18;10.68;;;;;;;;;;5055970;28;20032;-61
2023/10/20 01:58:00;;;;;;;10.63;10.13;;;;;;;;;;5060863;28;20028;-63
2023/10/20 02:00:26;;;;;;;11.35;10.85;;;;;;;;;;5055460;28;20066;-62
2023/10/20 02:02:51;;;;;;;10.73;10.23;;;;;;;;;;5061934;28;20029;-62
2023/10/20 02:05:16;;;;;;;10.57;10.07;;;;;;;;;;5058552;28;20021;-62
2023/10/20 02:07:42;;;;;;;11.27;10.77;;;;;;;;;;5058983;28;20059;-61
2023/10/20 02:10:08;;;;;;;11.35;10.82;;;;;;;;;;5056890;28;20044;-62
2023/10/20 02:12:33;;;;;;;11.52;11.00;;;;;;;;;;5057102;28;20117;-63
2023/10/20 02:14:59;;;;;;;10.40;9.90;;;;;;;;;;5070457;28;20116;-61
2023/10/20 02:17:24;;;;;;;10.90;10.40;;;;;;;;;;5069185;28;20039;-62
2023/10/20 02:19:49;;;;;;;10.77;10.27;;;;;;;;;;5070056;28;20029;-62
2023/10/20 02:22:15;;;;;;;10.38;9.88;;;;;;;;;;5069793;28;20079;-62
2023/10/20 02:24:40;;;;;;;10.65;10.15;;;;;;;;;;5072949;28;20020;-62
2023/10/20 02:27:05;;;;;;;10.90;10.40;;;;;;;;;;5075425;28;20527;-62
2023/10/20 02:29:33;;;;;;;10.52;10.02;;;;;;;;;;5072187;28;20063;-63
2023/10/20 02:31:58;;;;;;;10.77;10.27;;;;;;;;;;5068797;28;20035;-62
2023/10/20 02:34:24;;;;;;;10.10;9.70;;;;;;;;;;5072187;28;20016;-63
2023/10/20 02:36:50;;;;;;;10.77;10.27;;;;;;;;;;5073535;28;20024;-61
2023/10/20 02:39:15;;;;;;;10.68;10.18;;;;;;;;;;5069164;28;21303;-62
2023/10/20 02:41:40;;;;;;;10.40;9.90;;;;;;;;;;5065974;28;20028;-63
2023/10/20 02:44:05;;;;;;;10.48;9.98;;;;;;;;;;5070263;28;20449;-63
2023/10/20 02:46:31;;;;;;;11.05;10.55;;;;;;;;;;5070871;28;20033;-62
2023/10/20 02:48:56;;;;;;;11.00;10.50;;;;;;;;;;5075741;28;20024;-62
2023/10/20 02:51:22;;;;;;;11.02;10.52;;;;;;;;;;5069753;28;20016;-62
2023/10/20 02:53:47;;;;;;;10.32;9.82;;;;;;;;;;5063828;28;20716;-62
2023/10/20 02:56:16;;;;;;;11.07;10.57;;;;;;;;;;5059781;28;20056;-62
2023/10/20 02:58:45;;;;;;;10.80;10.30;;;;;;;;;;5061371;28;20024;-61
2023/10/20 03:01:14;;;;;;;10.48;9.98;;;;;;;;;;5055896;28;20024;-63
2023/10/20 03:03:39;;;;;;;10.80;10.30;;;;;;;;;;5063521;28;20036;-62
2023/10/20 03:06:04;;;;;;;10.85;10.35;;;;;;;;;;5068542;28;20501;-63
2023/10/20 03:08:30;;;;;;;10.75;10.25;;;;;;;;;;5068046;28;20396;-62
2023/10/20 03:10:56;;;;;;;10.52;10.02;;;;;;;;;;5059453;28;20024;-62
2023/10/20 03:13:22;;;;;;;11.75;11.15;;;;;;;;;;5058572;28;20056;-62
2023/10/20 03:15:47;;;;;;;10.48;9.98;;;;;;;;;;5056257;28;20082;-62
2023/10/20 03:18:14;;;;;;;10.52;10.02;;;;;;;;;;5063907;28;20021;-63
2023/10/20 03:20:39;;;;;;;10.23;9.75;;;;;;;;;;5075747;28;20092;-62
2023/10/20 03:23:05;;;;;;;10.50;10.00;;;;;;;;;;5072082;28;20107;-64
2023/10/20 03:25:33;;;;;;;10.70;10.20;;;;;;;;;;5075768;28;20383;-62
2023/10/20 03:27:59;;;;;;;10.50;10.00;;;;;;;;;;5081356;28;20389;-62
2023/10/20 03:30:24;;;;;;;11.15;10.65;;;;;;;;;;5065059;28;20037;-63
2023/10/20 03:32:50;;;;;;;10.43;9.93;;;;;;;;;;5069304;28;20020;-62
2023/10/20 03:35:16;;;;;;;10.40;9.90;;;;;;;;;;5072564;28;20473;-63
2023/10/20 03:37:41;;;;;;;10.50;10.00;;;;;;;;;;5064456;28;20028;-62
2023/10/20 03:40:16;;;;;;;10.68;10.18;;;;;;;;;;5073333;28;20025;-62
2023/10/20 03:42:44;;;;;;;10.20;9.70;;;;;;;;;;5074268;28;20016;-62
2023/10/20 03:45:10;;;;;;;10.65;10.15;;;;;;;;;;5071222;28;20512;-62
2023/10/20 03:47:39;;;;;;;10.48;9.98;;;;;;;;;;5058294;28;20042;-62
2023/10/20 03:50:14;;;;;;;10.90;10.40;;;;;;;;;;5061643;28;20013;-62
2023/10/20 03:52:41;;;;;;;11.18;10.68;;;;;;;;;;5057963;28;20558;-62
2023/10/20 03:55:08;;;;;;;10.85;10.35;;;;;;;;;;5059144;28;20035;-62
2023/10/20 03:57:34;;;;;;;10.80;10.30;;;;;;;;;;5058711;28;20029;-63
2023/10/20 04:00:14;;;;;;;10.63;10.13;;;;;;;;;;5057993;28;20090;-63
2023/10/20 04:02:40;;;;;;;11.00;10.50;;;;;;;;;;5061237;28;20040;-63
2023/10/20 04:05:05;;;;;;;10.80;10.30;;;;;;;;;;5057169;28;20021;-63
2023/10/20 04:07:31;;;;;;;10.50;10.00;;;;;;;;;;5054152;28;20033;-62
2023/10/20 04:09:59;;;;;;;10.98;10.48;;;;;;;;;;5060235;28;20036;-63
2023/10/20 04:12:24;;;;;;;11.07;10.57;;;;;;;;;;5055382;28;20409;-62
2023/10/20 04:14:53;;;;;;;10.70;10.20;;;;;;;;;;5065373;28;20052;-62
2023/10/20 04:17:19;;;;;;;10.60;10.10;;;;;;;;;;5069373;28;20039;-60
2023/10/20 04:19:45;;;;;;;11.20;10.70;;;;;;;;;;5063732;28;20020;-63
2023/10/20 04:22:13;;;;;;;10.23;9.77;;;;;;;;;;5071760;28;20504;-63
2023/10/20 04:24:38;;;;;;;10.80;10.30;;;;;;;;;;5072219;28;20093;-61
2023/10/20 04:27:04;;;;;;;10.77;10.27;;;;;;;;;;5080488;28;20485;-63
2023/10/20 04:29:35;;;;;;;10.95;10.45;;;;;;;;;;5070610;28;20108;-62
2023/10/20 04:43:37;;;;;;;11.27;10.77;;;;;;;;;;5056476;28;20031;-62
2023/10/20 04:49:15;;;;;;;11.60;11.05;;;;;;;;;;5062079;28;20031;-62
2023/10/20 04:51:28;;;;;;;11.30;10.80;;;;;;;;;;5057499;28;20079;-62
2023/10/20 04:59:09;;;;;;;11.13;10.63;;;;;;;;;;5058219;28;20570;-61
2023/10/20 05:01:41;;;;;;;11.68;11.07;;;;;;;;;;5058363;28;20043;-62
2023/10/20 05:04:28;;;;;;;12.55;11.95;;;;;;;;;;5052847;28;20092;-61
2023/10/20 05:07:08;;;;;;;11.10;10.60;;;;;;;;;;5057788;28;20017;-61
2023/10/20 05:09:40;;;;;;;11.55;10.98;;;;;;;;;;5055451;28;20062;-61
2023/10/20 05:12:06;;;;;;;11.55;11.00;;;;;;;;;;5057668;28;20043;-61
2023/10/20 05:14:31;;;;;;;10.85;10.35;;;;;;;;;;5057106;28;20044;-61
2023/10/20 05:16:57;;;;;;;11.77;11.18;;;;;;;;;;5053400;28;20025;-62
2023/10/20 05:19:23;;;;;;;10.73;10.23;;;;;;;;;;5056246;28;20021;-63
2023/10/20 05:21:49;;;;;;;11.05;10.55;;;;;;;;;;5059594;28;20079;-62
2023/10/20 05:24:14;;;;;;;10.63;10.13;;;;;;;;;;5065208;28;20137;-61
2023/10/20 05:26:39;;;;;;;11.48;10.98;;;;;;;;;;5054786;28;20111;-61
2023/10/20 05:29:05;;;;;;;11.25;10.75;;;;;;;;;;5050685;28;20459;-61
2023/10/20 05:31:32;;;;;;;11.25;10.75;;;;;;;;;;5057360;28;20646;-61
2023/10/20 05:33:57;;;;;;;10.65;10.15;;;;;;;;;;5052657;28;20505;-61
2023/10/20 05:36:22;;;;;;;12.18;11.57;;;;;;;;;;5055570;28;20024;-60
2023/10/20 05:38:48;;;;;;;11.30;10.80;;;;;;;;;;5056889;28;20029;-61
2023/10/20 05:41:13;;;;;;;10.63;10.13;;;;;;;;;;5052665;28;20041;-61
2023/10/20 05:43:38;;;;;;;11.48;10.98;;;;;;;;;;5056532;28;20045;-61
2023/10/20 05:46:04;;;;;;;11.38;10.88;;;;;;;;;;5054920;28;20068;-62
2023/10/20 05:48:29;;;;;;;11.85;11.25;;;;;;;;;;5054746;28;20012;-61
2023/10/20 05:50:56;;;;;;;10.70;10.20;;;;;;;;;;5052769;28;20559;-62
2023/10/20 05:53:21;;;;;;;11.35;10.85;;;;;;;;;;5053847;28;20029;-61
2023/10/20 05:55:46;;;;;;;11.57;11.05;;;;;;;;;;5055380;28;20734;-61
2023/10/20 05:58:11;;;;;;;11.05;10.55;;;;;;;;;;5054016;28;20029;-63
2023/10/20 06:00:37;;;;;;;12.63;12.02;;;;;;;;;;5053536;28;20040;-63
2023/10/20 06:03:03;;;;;;;11.82;11.25;;;;;;;;;;5053951;28;20097;-62
2023/10/20 06:05:29;;;;;;;10.85;10.35;;;;;;;;;;5055116;28;20795;-63
2023/10/20 06:07:55;;;;;;;11.20;10.70;;;;;;;;;;5058893;28;20044;-61
2023/10/20 06:10:23;;;;;;;12.07;11.48;;;;;;;;;;5056594;28;20021;-62
2023/10/20 06:12:49;;;;;;;11.25;10.75;;;;;;;;;;5054487;28;20135;-62
2023/10/20 06:15:15;;;;;;;10.55;10.05;;;;;;;;;;5065838;28;20020;-62
2023/10/20 06:17:41;;;;;;;11.30;10.80;;;;;;;;;;5064702;28;20029;-62
2023/10/20 06:20:07;;;;;;;11.90;11.30;;;;;;;;;;5060032;28;20457;-63
2023/10/20 06:22:33;;;;;;;10.82;10.32;;;;;;;;;;5059481;28;20036;-62
2023/10/20 06:24:59;;;;;;;12.30;11.70;;;;;;;;;;5053449;28;20024;-64
2023/10/20 06:27:25;;;;;;;11.65;11.13;;;;;;;;;;5058053;28;20013;-63
2023/10/20 06:30:05;;;;;;;11.80;11.20;;;;;;;;;;5060188;28;20456;-65
2023/10/20 06:32:43;;;;;;;11.40;10.90;;;;;;;;;;5061658;28;20124;-64
2023/10/20 06:35:16;;;;;;;11.30;10.80;;;;;;;;;;5051177;28;20021;-63
2023/10/20 06:37:56;;;;;;;12.20;11.60;;;;;;;;;;5061456;28;20096;-63
2023/10/20 06:40:22;;;;;;;12.07;11.48;;;;;;;;;;5061490;28;20527;-64
2023/10/20 06:42:47;;;;;;;12.63;12.02;;;;;;;;;;5057492;28;20040;-63
2023/10/20 06:45:12;;;;;;;12.18;11.57;;;;;;;;;;5060806;28;20021;-64
2023/10/20 06:47:40;;;;;;;11.77;11.25;;;;;;;;;;5063140;28;20311;-62
2023/10/20 06:50:07;;;;;;;11.38;10.88;;;;;;;;;;5057747;28;20638;-65
2023/10/20 06:52:35;;;;;;;12.90;12.30;;;;;;;;;;5058197;28;20040;-65
2023/10/20 06:55:00;;;;;;;11.65;11.15;;;;;;;;;;5058441;28;20025;-66
2023/10/20 06:57:26;;;;;;;11.60;11.10;;;;;;;;;;5063065;28;20028;-63
2023/10/20 06:59:51;;;;;;;12.05;11.48;;;;;;;;;;5058878;28;20791;-64
2023/10/20 07:02:17;;;;;;;12.02;11.43;;;;;;;;;;5060808;28;20021;-63
2023/10/20 07:04:43;;;;;;;11.50;11.00;;;;;;;;;;5062184;28;20025;-64
2023/10/20 07:07:11;;;;;;;12.10;11.50;;;;;;;;;;5061628;28;20021;-65
2023/10/20 07:09:38;;;;;;;12.35;11.75;;;;;;;;;;5057404;28;20024;-65
2023/10/20 07:12:03;;;;;;;12.40;11.80;;;;;;;;;;5060693;28;20128;-64
2023/10/20 07:14:28;;;;;;;11.80;11.30;;;;;;;;;;5059375;28;20068;-63
2023/10/20 07:16:54;;;;;;;11.60;11.10;;;;;;;;;;5056102;28;20028;-63
2023/10/20 07:19:19;;;;;;;12.75;12.15;;;;;;;;;;5059563;28;20028;-64
2023/10/20 07:21:44;;;;;;;11.60;11.10;;;;;;;;;;5066230;28;20060;-65
2023/10/20 07:24:10;;;;;;;11.93;11.43;;;;;;;;;;5066432;28;20035;-63
2023/10/20 07:26:35;;;;;;;12.13;11.52;;;;;;;;;;5060506;28;20023;-65
2023/10/20 07:29:01;;;;;;;12.27;11.68;;;;;;;;;;5060814;28;20477;-65
2023/10/20 07:31:27;;;;;;;12.15;11.55;;;;;;;;;;5064051;28;20028;-64
2023/10/20 07:33:53;;;;;;;11.75;11.25;;;;;;;;;;5058018;28;20032;-64
2023/10/20 07:36:19;;;;;;;12.50;11.90;;;;;;;;;;5063876;28;20051;-64
2023/10/20 07:38:44;;;;;;;11.52;11.02;;;;;;;;;;5067753;28;20355;-64
2023/10/20 07:41:12;;;;;;;12.10;11.50;;;;;;;;;;5059185;28;20509;-64
2023/10/20 07:43:38;;;;;;;11.55;11.05;;;;;;;;;;5061511;28;20028;-64
2023/10/20 07:46:05;;;;;;;12.73;12.13;;;;;;;;;;5060433;28;20091;-66
2023/10/20 07:48:33;;;;;;;11.65;11.15;;;;;;;;;;5060840;28;20102;-64
2023/10/20 07:51:01;;;;;;;12.10;11.52;;;;;;;;;;5061903;28;20164;-63
2023/10/20 07:53:29;;;;;;;12.75;12.15;;;;;;;;;;5063263;28;20373;-62
2023/10/20 07:55:54;;;;;;;12.30;11.70;;;;;;;;;;5057301;28;20074;-65
2023/10/20 07:58:19;;;;;;;12.25;11.68;;;;;;;;;;5058139;28;20032;-66
2023/10/20 08:00:45;;;;;;;11.75;11.25;;;;;;;;;;5053040;28;20028;-63
2023/10/20 08:03:11;;;;;;;11.80;11.30;;;;;;;;;;5059630;28;20032;-64
2023/10/20 08:05:36;;;;;;;11.77;11.27;;;;;;;;;;5058700;28;20473;-63
2023/10/20 08:08:02;;;;;;;12.15;11.65;;;;;;;;;;5059938;28;20405;-64
2023/10/20 08:10:28;;;;;;;11.52;11.02;;;;;;;;;;5055456;28;20020;-64
2023/10/20 08:12:54;;;;;;;11.73;11.23;;;;;;;;;;5060224;28;20053;-63
2023/10/20 08:15:19;;;;;;;12.25;11.68;;;;;;;;;;5057326;28;20111;-64
2023/10/20 08:17:46;;;;;;;11.52;11.02;;;;;;;;;;5062047;28;20579;-64
2023/10/20 08:20:11;;;;;;;11.63;11.13;;;;;;;;;;5061241;28;20028;-65
2023/10/20 08:22:37;;;;;;;11.50;11.00;;;;;;;;;;5062425;28;20021;-64
2023/10/20 08:25:02;;;;;;;11.90;11.40;;;;;;;;;;5058876;28;20454;-64
2023/10/20 08:27:28;;;;;;;11.77;11.27;;;;;;;;;;5064183;28;20028;-64
2023/10/20 08:29:56;;;;;;;12.13;11.63;;;;;;;;;;5058109;28;20021;-63
2023/10/20 08:32:22;;;;;;;11.70;11.20;;;;;;;;;;5057940;28;20024;-64
2023/10/20 08:34:48;;;;;;;11.73;11.23;;;;;;;;;;5061882;28;20024;-63
2023/10/20 08:37:14;;;;;;;11.80;11.30;;;;;;;;;;5061053;28;20020;-63
2023/10/20 08:39:39;;;;;;;11.90;11.40;;;;;;;;;;5059622;28;20053;-64
2023/10/20 08:42:14;;;;;;;12.00;11.50;;;;;;;;;;5060316;28;20020;-63
2023/10/20 08:44:39;;;;;;;11.70;11.20;;;;;;;;;;5058946;28;20087;-63
2023/10/20 08:47:07;;;;;;;12.27;11.77;;;;;;;;;;5056423;28;20020;-64
2023/10/20 08:49:33;;;;;;;11.68;11.18;;;;;;;;;;5057114;28;20115;-63
2023/10/20 08:52:01;;;;;;;12.23;11.73;;;;;;;;;;5062183;28;20449;-64
2023/10/20 08:54:26;;;;;;;12.00;11.50;;;;;;;;;;5056522;28;20033;-63
2023/10/20 08:56:52;;;;;;;11.98;11.48;;;;;;;;;;5060439;28;20450;-63
2023/10/20 08:59:17;;;;;;;11.57;11.07;;;;;;;;;;5061373;28;20503;-64
2023/10/20 09:01:44;;;;;;;12.13;11.63;;;;;;;;;;5058182;28;20108;-69
2023/10/20 09:04:19;;;;;;;12.35;11.77;;;;;;;;;;5050966;28;20494;-63
2023/10/20 09:06:44;;;;;;;12.48;11.88;;;;;;;;;;5056098;28;20063;-64
2023/10/20 09:09:10;;;;;;;11.77;11.27;;;;;;;;;;5058969;28;20055;-65
2023/10/20 09:11:35;;;;;;;12.10;11.60;;;;;;;;;;5061598;28;20020;-63
2023/10/20 09:14:02;;;;;;;12.07;11.57;;;;;;;;;;5059787;28;20044;-65
2023/10/20 09:16:27;;;;;;;11.95;11.45;;;;;;;;;;5056409;28;20025;-64
2023/10/20 09:18:53;;;;;;;11.90;11.40;;;;;;;;;;5059047;28;20018;-61
2023/10/20 09:21:20;;;;;;;12.05;11.55;;;;;;;;;;5061013;28;20081;-63
2023/10/20 09:23:57;;;;;;;12.35;11.80;;;;;;;;;;5058063;28;20075;-64
2023/10/20 09:26:24;;;;;;;11.73;11.23;;;;;;;;;;5054765;28;20490;-65
2023/10/20 09:28:50;;;;;;;13.32;12.73;;;;;;;;;;5054935;28;20086;-64
2023/10/20 09:31:18;;;;;;;11.93;11.43;;;;;;;;;;5051019;28;20557;-64
2023/10/20 09:33:44;;;;;;;11.70;11.20;;;;;;;;;;5058348;28;20054;-67
2023/10/20 09:36:11;;;;;;;12.10;11.60;;;;;;;;;;5056429;28;20067;-64
2023/10/20 09:38:37;;;;;;;11.80;11.30;;;;;;;;;;5054730;28;20545;-62
2023/10/20 09:41:13;;;;;;;11.90;11.40;;;;;;;;;;5058257;28;20544;-62
2023/10/20 09:43:48;;;;;;;11.60;11.10;;;;;;;;;;5053657;28;20531;-63
2023/10/20 09:46:19;;;;;;;12.18;11.68;;;;;;;;;;5057506;28;20052;-63
2023/10/20 09:48:46;;;;;;;11.88;11.38;;;;;;;;;;5059770;28;20032;-63
2023/10/20 09:51:12;;;;;;;11.75;11.25;;;;;;;;;;5062166;28;20366;-63
2023/10/20 09:53:38;;;;;;;11.30;10.80;;;;;;;;;;5055798;28;20043;-61
2023/10/20 09:56:04;;;;;;;11.48;10.98;;;;;;;;;;5055112;28;20473;-62
2023/10/20 09:58:34;;;;;;;11.40;10.90;;;;;;;;;;5054001;28;20486;-64
2023/10/20 10:00:59;;;;;;;11.45;10.95;;;;;;;;;;5066953;28;20119;-61
2023/10/20 10:03:28;;;;;;;11.90;11.40;;;;;;;;;;5065133;28;20065;-62
2023/10/20 10:05:54;;;;;;;11.77;11.27;;;;;;;;;;5066454;28;20029;-62
2023/10/20 10:08:20;;;;;;;11.55;11.05;;;;;;;;;;5061003;28;20021;-62
2023/10/20 10:10:45;;;;;;;12.50;11.90;;;;;;;;;;5060315;28;20069;-62
2023/10/20 10:13:11;;;;;;;12.00;11.50;;;;;;;;;;5056571;28;20037;-62
2023/10/20 10:15:39;;;;;;;11.40;10.90;;;;;;;;;;5066097;28;20027;-62
2023/10/20 10:18:11;;;;;;;11.68;11.18;;;;;;;;;;5058449;28;20021;-62
2023/10/20 10:20:42;;;;;;;11.55;11.05;;;;;;;;;;5062442;28;20408;-62
2023/10/20 10:23:09;;;;;;;11.20;10.70;;;;;;;;;;5062835;28;20033;-62
2023/10/20 10:25:39;;;;;;;11.60;11.10;;;;;;;;;;5065486;28;20017;-61
2023/10/20 10:28:14;;;;;;;11.52;11.02;;;;;;;;;;5068483;28;20078;-63
2023/10/20 10:30:39;;;;;;;11.30;10.80;;;;;;;;;;5061341;28;20033;-62
2023/10/20 10:33:06;;;;;;;11.38;10.88;;;;;;;;;;5071233;28;20028;-62
2023/10/20 10:35:31;;;;;;;11.65;11.15;;;;;;;;;;5061346;28;20089;-63
2023/10/20 10:37:57;;;;;;;11.35;10.85;;;;;;;;;;5071572;28;20020;-61
2023/10/20 10:40:23;;;;;;;11.50;11.00;;;;;;;;;;5071023;28;20021;-62
2023/10/20 10:42:49;;;;;;;11.30;10.80;;;;;;;;;;5060709;28;20120;-63
2023/10/20 10:45:27;;;;;;;11.38;10.88;;;;;;;;;;5070485;28;20134;-63
2023/10/20 10:48:11;;;;;;;11.43;10.93;;;;;;;;;;5064011;28;20047;-63
2023/10/20 10:50:40;;;;;;;11.75;11.25;;;;;;;;;;5064684;28;20147;-62
2023/10/20 10:53:12;;;;;;;11.23;10.73;;;;;;;;;;5067678;28;20085;-62
2023/10/20 10:55:38;;;;;;;11.82;11.32;;;;;;;;;;5064490;28;20029;-63
2023/10/20 10:58:07;;;;;;;11.43;10.93;;;;;;;;;;5067783;28;20025;-63
2023/10/20 11:00:33;;;;;;;11.38;10.88;;;;;;;;;;5067556;28;20021;-62
2023/10/20 11:03:00;;;;;;;11.35;10.85;;;;;;;;;;5061876;28;20370;-62
2023/10/20 11:05:28;;;;;;;11.50;11.00;;;;;;;;;;5069917;28;20020;-62
2023/10/20 11:07:59;;;;;;;11.25;10.75;;;;;;;;;;5068640;28;20023;-61
2023/10/20 11:10:26;;;;;;;11.40;10.90;;;;;;;;;;5062333;28;20354;-63
2023/10/20 11:12:52;;;;;;;12.27;11.73;;;;;;;;;;5065072;28;20072;-61
2023/10/20 11:15:17;;;;;;;11.40;10.90;;;;;;;;;;5066841;28;20486;-61
2023/10/20 11:17:43;;;;;;;11.30;10.80;;;;;;;;;;5067144;28;20031;-62
2023/10/20 11:20:09;;;;;;;11.50;11.00;;;;;;;;;;5069893;28;20095;-62
2023/10/20 11:22:38;;;;;;;11.95;11.45;;;;;;;;;;5063440;28;20079;-62
2023/10/20 11:25:05;;;;;;;11.40;10.90;;;;;;;;;;5061864;28;20027;-63
2023/10/20 11:27:40;;;;;;;11.30;10.80;;;;;;;;;;5066676;28;20078;-62
2023/10/20 11:30:06;;;;;;;11.40;10.90;;;;;;;;;;5063191;28;20024;-62
2023/10/20 11:32:32;;;;;;;11.75;11.25;;;;;;;;;;5059160;28;20507;-62
2023/10/20 11:34:57;;;;;;;11.40;10.90;;;;;;;;;;5063677;28;20051;-62
2023/10/20 11:37:22;;;;;;;11.45;10.95;;;;;;;;;;5063533;28;20020;-62
2023/10/20 11:39:48;;;;;;;11.45;10.95;;;;;;;;;;5067764;28;20471;-65
2023/10/20 11:42:13;;;;;;;11.30;10.80;;;;;;;;;;5066899;28;20478;-61
2023/10/20 11:44:39;;;;;;;11.43;10.93;;;;;;;;;;5064790;28;20044;-62
2023/10/20 11:47:04;;;;;;;11.95;11.45;;;;;;;;;;5058497;28;20051;-61
2023/10/20 11:49:29;;;;;;;11.80;11.30;;;;;;;;;;5069483;28;20040;-61
2023/10/20 11:51:55;;;;;;;11.50;11.00;;;;;;;;;;5062715;28;20040;-63
2023/10/20 11:54:20;;;;;;;11.27;10.77;;;;;;;;;;5066079;28;20024;-63
2023/10/20 11:56:46;;;;;;;11.68;11.18;;;;;;;;;;5066497;28;20029;-62
2023/10/20 11:59:15;;;;;;;11.45;10.95;;;;;;;;;;5055566;28;20685;-64
2023/10/20 12:01:41;;;;;;;11.10;10.60;;;;;;;;;;5095628;27;20159;-62
2023/10/20 12:04:08;;;;;;;11.32;10.82;;;;;;;;;;5064762;28;20115;-62
2023/10/20 12:06:36;;;;;;;11.65;11.15;;;;;;;;;;5066300;28;20107;-63
2023/10/20 12:09:02;;;;;;;11.60;11.10;;;;;;;;;;5059547;28;20016;-62
2023/10/20 12:11:27;;;;;;;11.55;11.05;;;;;;;;;;5060211;28;20032;-62
2023/10/20 12:13:52;;;;;;;11.45;10.95;;;;;;;;;;5057758;28;20051;-60
2023/10/20 12:16:19;;;;;;;11.90;11.40;;;;;;;;;;5057465;28;20647;-61
2023/10/20 12:18:46;;;;;;;11.45;10.95;;;;;;;;;;5063074;28;20035;-61
2023/10/20 12:21:12;;;;;;;11.60;11.10;;;;;;;;;;5067508;28;20453;-64
2023/10/20 12:23:37;;;;;;;11.82;11.32;;;;;;;;;;5061868;28;20068;-63
2023/10/20 12:26:03;;;;;;;11.35;10.85;;;;;;;;;;5055151;28;20023;-62
2023/10/20 12:28:28;;;;;;;11.70;11.20;;;;;;;;;;5058634;28;20474;-62
2023/10/20 12:30:54;;;;;;;11.50;11.00;;;;;;;;;;5059822;28;20021;-61
2023/10/20 12:33:19;;;;;;;11.88;11.38;;;;;;;;;;5056875;28;20385;-61
2023/10/20 12:35:45;;;;;;;13.48;12.88;;;;;;;;;;5057109;28;20032;-65
2023/10/20 12:38:12;;;;;;;12.30;11.75;;;;;;;;;;5058042;28;20021;-63
2023/10/20 12:40:39;;;;;;;11.98;11.48;;;;;;;;;;5057512;28;20539;-63
2023/10/20 12:43:09;;;;;;;11.50;11.00;;;;;;;;;;5059379;28;20462;-63
2023/10/20 12:45:35;;;;;;;12.50;11.90;;;;;;;;;;5058867;28;20028;-64
2023/10/20 12:48:01;;;;;;;12.60;12.00;;;;;;;;;;5057789;28;20078;-63
2023/10/20 12:50:27;;;;;;;11.85;11.35;;;;;;;;;;5055172;28;20025;-64
2023/10/20 12:52:52;;;;;;;11.60;11.10;;;;;;;;;;5059749;28;20074;-65
2023/10/20 12:55:18;;;;;;;12.40;11.80;;;;;;;;;;5059982;28;20059;-63
2023/10/20 12:57:44;;;;;;;11.93;11.43;;;;;;;;;;5058010;28;20025;-63
2023/10/20 13:00:10;;;;;;;12.15;11.65;;;;;;;;;;5060199;28;20029;-63
2023/10/20 13:02:35;;;;;;;12.15;11.65;;;;;;;;;;5056896;28;20115;-63
2023/10/20 13:05:01;;;;;;;12.27;11.75;;;;;;;;;;5057253;28;20378;-63
2023/10/20 13:07:26;;;;;;;12.48;11.88;;;;;;;;;;5053883;28;20090;-65
2023/10/20 13:09:53;;;;;;;12.00;11.50;;;;;;;;;;5056523;28;20024;-64
2023/10/20 13:12:19;;;;;;;12.18;11.68;;;;;;;;;;5057095;28;20024;-63
2023/10/20 13:14:44;;;;;;;12.07;11.57;;;;;;;;;;5059987;28;20406;-63
2023/10/20 13:17:10;;;;;;;12.00;11.50;;;;;;;;;;5063858;28;20039;-65
2023/10/20 13:19:37;;;;;;;11.70;11.20;;;;;;;;;;5054909;28;20021;-63
2023/10/20 13:22:03;;;;;;;11.98;11.48;;;;;;;;;;5053677;28;20416;-64
2023/10/20 13:24:29;;;;;;;12.55;11.95;;;;;;;;;;5052364;28;20397;-63
2023/10/20 13:26:54;;;;;;;12.18;11.68;;;;;;;;;;5059478;28;20036;-64
2023/10/20 13:29:19;;;;;;;12.13;11.63;;;;;;;;;;5057217;28;20021;-64
2023/10/20 13:31:44;;;;;;;12.55;11.98;;;;;;;;;;5056909;28;20017;-63
2023/10/20 13:34:10;;;;;;;11.70;11.20;;;;;;;;;;5049232;28;20021;-64
2023/10/20 13:36:35;;;;;;;12.25;11.75;;;;;;;;;;5053060;28;21279;-63
2023/10/20 13:39:01;;;;;;;12.00;11.50;;;;;;;;;;5055245;28;20188;-63
2023/10/20 13:41:26;;;;;;;11.75;11.25;;;;;;;;;;5052799;28;20068;-63
2023/10/20 13:43:51;;;;;;;12.55;11.95;;;;;;;;;;5052070;28;20393;-64
2023/10/20 13:46:17;;;;;;;11.50;11.00;;;;;;;;;;5060612;28;20024;-65
2023/10/20 13:48:42;;;;;;;12.13;11.63;;;;;;;;;;5057234;28;20093;-62
2023/10/20 13:51:08;;;;;;;12.55;11.95;;;;;;;;;;5057025;28;20073;-63
2023/10/20 13:53:35;;;;;;;11.63;11.13;;;;;;;;;;5059474;28;20029;-65
2023/10/20 13:56:01;;;;;;;12.18;11.68;;;;;;;;;;5057289;28;20040;-64
2023/10/20 13:58:26;;;;;;;11.68;11.18;;;;;;;;;;5059366;28;20448;-63
2023/10/20 14:00:52;;;;;;;12.10;11.60;;;;;;;;;;5061152;28;20021;-62
2023/10/20 14:03:17;;;;;;;12.48;11.88;;;;;;;;;;5056924;28;20102;-64
2023/10/20 14:05:50;;;;;;;11.80;11.30;;;;;;;;;;5057152;28;20025;-63
2023/10/20 14:08:15;;;;;;;11.90;11.40;;;;;;;;;;5057128;28;20021;-63
2023/10/20 14:10:42;;;;;;;11.52;11.02;;;;;;;;;;5062438;28;20786;-63
2023/10/20 14:13:07;;;;;;;12.02;11.52;;;;;;;;;;5055899;28;20048;-62
2023/10/20 14:15:32;;;;;;;12.15;11.65;;;;;;;;;;5055938;28;20025;-63
2023/10/20 14:17:59;;;;;;;11.93;11.43;;;;;;;;;;5057119;28;20028;-63
2023/10/20 14:20:24;;;;;;;12.52;11.93;;;;;;;;;;5056370;28;20052;-63
2023/10/20 14:22:49;;;;;;;11.65;11.15;;;;;;;;;;5058155;28;20063;-62
2023/10/20 14:25:15;;;;;;;11.77;11.27;;;;;;;;;;5052876;28;20058;-63
2023/10/20 14:27:40;;;;;;;12.10;11.60;;;;;;;;;;5057353;28;20839;-62
2023/10/20 14:30:06;;;;;;;11.82;11.32;;;;;;;;;;5060168;28;21339;-62
2023/10/20 14:32:35;;;;;;;11.90;11.40;;;;;;;;;;5053033;28;20086;-63
2023/10/20 14:35:00;;;;;;;11.82;11.32;;;;;;;;;;5060087;28;20441;-62